createdAt,value
2022-12-13T00:01:53.114Z,49.93
2022-12-13T00:04:23.568Z,49.36
2022-12-13T00:06:51.847Z,49.66
2022-12-13T00:09:19.768Z,49.79
2022-12-13T00:11:48.845Z,49.85
2022-12-13T00:14:16.821Z,49.65
2022-12-13T00:16:49.499Z,49.50
2022-12-13T00:19:18.510Z,49.97
2022-12-13T00:21:45.984Z,50.25
2022-12-13T00:24:13.677Z,49.92
2022-12-13T00:26:41.004Z,49.99
2022-12-13T00:29:09.229Z,49.93
2022-12-13T00:31:58.779Z,50.23
2022-12-13T00:34:24.947Z,50.40
2022-12-13T00:36:54.609Z,49.78
2022-12-13T00:39:21.851Z,50.22
2022-12-13T00:41:49.056Z,49.74
2022-12-13T00:44:16.447Z,49.62
2022-12-13T00:46:44.097Z,49.65
2022-12-13T00:49:13.071Z,49.67
2022-12-13T00:51:41.129Z,49.51
2022-12-13T00:54:09.313Z,49.16
2022-12-13T00:56:38.108Z,49.42
2022-12-13T00:59:05.432Z,49.53
2022-12-13T01:01:36.389Z,49.54
2022-12-13T01:04:06.211Z,49.92
2022-12-13T01:06:46.079Z,49.62
2022-12-13T01:09:19.976Z,49.77
2022-12-13T01:11:48.261Z,49.74
2022-12-13T01:14:17.223Z,49.72
2022-12-13T01:16:44.505Z,50.07
2022-12-13T01:19:11.798Z,50.52
2022-12-13T01:21:39.318Z,50.81
2022-12-13T01:24:07.644Z,50.61
2022-12-13T01:26:34.991Z,50.33
2022-12-13T01:29:02.244Z,50.35
2022-12-13T01:31:29.641Z,49.70
2022-12-13T01:33:57.593Z,50.04
2022-12-13T01:36:26.992Z,49.96
2022-12-13T01:38:58.473Z,49.88
2022-12-13T01:41:28.894Z,49.96
2022-12-13T01:44:05.803Z,49.91
2022-12-13T01:46:36.535Z,49.59
2022-12-13T01:49:19.975Z,49.46
2022-12-13T01:51:56.474Z,49.47
2022-12-13T01:54:36.657Z,49.40
2022-12-13T01:57:08.931Z,49.61
2022-12-13T01:59:39.508Z,49.82
2022-12-13T02:02:09.631Z,49.42
2022-12-13T02:05:04.095Z,49.58
2022-12-13T02:07:35.206Z,49.60
2022-12-13T02:10:06.419Z,49.57
2022-12-13T02:12:36.751Z,49.88
2022-12-13T02:15:13.308Z,49.54
2022-12-13T02:18:25.268Z,49.34
2022-12-13T02:21:13.690Z,49.60
2022-12-13T02:23:46.854Z,50.24
2022-12-13T02:26:41.805Z,50.17
2022-12-13T02:29:58.416Z,49.72
2022-12-13T02:32:49.874Z,49.91
2022-12-13T02:35:26.319Z,50.46
2022-12-13T02:38:25.461Z,51.18
2022-12-13T02:41:22.415Z,50.18
2022-12-13T02:44:22.239Z,49.80
2022-12-13T02:47:06.616Z,50.43
2022-12-13T02:49:47.316Z,50.56
2022-12-13T02:52:22.113Z,50.68
2022-12-13T02:54:50.163Z,50.46
2022-12-13T02:57:35.693Z,50.81
2022-12-13T03:00:17.772Z,51.34
2022-12-13T03:03:22.358Z,50.92
2022-12-13T03:06:12.651Z,50.79
2022-12-13T03:09:30.837Z,50.70
2022-12-13T03:12:13.056Z,51.04
2022-12-13T03:15:15.430Z,50.92
2022-12-13T03:17:59.946Z,51.41
2022-12-13T03:20:29.755Z,51.33
2022-12-13T03:22:58.085Z,50.81
2022-12-13T03:25:31.377Z,51.01
2022-12-13T03:28:02.493Z,50.60
2022-12-13T03:30:32.829Z,50.71
2022-12-13T03:33:00.579Z,50.53
2022-12-13T03:35:34.472Z,50.91
2022-12-13T03:38:22.576Z,50.82
2022-12-13T03:41:17.324Z,50.78
2022-12-13T03:43:45.373Z,50.92
2022-12-13T03:46:12.844Z,50.57
2022-12-13T03:48:40.134Z,50.48
2022-12-13T03:51:07.730Z,50.80
2022-12-13T03:53:35.194Z,50.34
2022-12-13T03:56:05.912Z,50.14
2022-12-13T03:58:38.129Z,50.03
2022-12-13T04:01:12.766Z,50.32
2022-12-13T04:03:42.108Z,50.25
2022-12-13T04:06:11.122Z,50.03
2022-12-13T04:08:40.080Z,50.35
2022-12-13T04:11:07.995Z,50.50
2022-12-13T04:13:35.243Z,50.34
2022-12-13T04:16:03.535Z,49.93
2022-12-13T04:18:31.138Z,50.27
2022-12-13T04:20:58.626Z,50.30
2022-12-13T04:23:25.818Z,50.46
2022-12-13T04:25:53.225Z,50.60
2022-12-13T04:28:22.130Z,50.16
2022-12-13T04:30:53.307Z,50.19
2022-12-13T04:33:25.061Z,50.30
2022-12-13T04:35:52.447Z,51.16
2022-12-13T04:38:20.118Z,51.07
2022-12-13T04:40:47.386Z,50.88
2022-12-13T04:43:14.605Z,50.99
2022-12-13T04:45:43.425Z,51.04
2022-12-13T04:48:11.375Z,51.16
2022-12-13T04:50:38.675Z,50.65
2022-12-13T04:53:05.933Z,50.59
2022-12-13T04:55:34.102Z,50.71
2022-12-13T04:58:01.545Z,50.81
2022-12-13T05:00:28.731Z,50.53
2022-12-13T05:02:56.019Z,50.62
2022-12-13T05:05:23.267Z,50.32
2022-12-13T05:07:50.594Z,50.26
2022-12-13T05:10:37.486Z,49.99
2022-12-13T05:13:06.367Z,49.68
2022-12-13T05:15:34.440Z,49.62
2022-12-13T05:18:10.185Z,49.98
2022-12-13T05:20:39.887Z,49.70
2022-12-13T05:23:07.418Z,49.83
2022-12-13T05:25:34.919Z,49.88
2022-12-13T05:28:27.151Z,50.11
2022-12-13T05:30:49.386Z,50.31
2022-12-13T05:33:16.578Z,50.19
2022-12-13T05:35:44.700Z,50.94
2022-12-13T05:38:11.937Z,50.77
2022-12-13T05:40:39.191Z,50.58
2022-12-13T05:43:22.251Z,50.43
2022-12-13T05:45:50.846Z,50.46
2022-12-13T05:48:24.316Z,50.77
2022-12-13T05:50:52.520Z,50.46
2022-12-13T05:53:42.623Z,50.09
2022-12-13T05:56:11.700Z,50.34
2022-12-13T05:58:40.888Z,50.35
2022-12-13T06:01:12.642Z,50.52
2022-12-13T06:03:41.871Z,50.37
2022-12-13T06:06:12.041Z,50.34
2022-12-13T06:08:40.019Z,50.70
2022-12-13T06:11:10.988Z,50.25
2022-12-13T06:13:44.102Z,50.02
2022-12-13T06:16:23.203Z,50.26
2022-12-13T06:19:00.974Z,50.61
2022-12-13T06:21:43.500Z,50.79
2022-12-13T06:24:16.320Z,50.77
2022-12-13T06:26:45.225Z,50.09
2022-12-13T06:29:24.206Z,50.33
2022-12-13T06:32:03.306Z,50.35
2022-12-13T06:34:36.233Z,50.14
2022-12-13T06:37:07.418Z,49.90
2022-12-13T06:39:36.665Z,50.24
2022-12-13T06:42:07.142Z,50.12
2022-12-13T06:44:35.422Z,50.26
2022-12-13T06:47:11.241Z,50.01
2022-12-13T06:49:42.640Z,50.08
2022-12-13T06:52:12.142Z,50.46
2022-12-13T06:54:39.609Z,50.57
2022-12-13T06:57:07.243Z,50.43
2022-12-13T06:59:34.937Z,50.08
2022-12-13T07:02:03.729Z,50.00
2022-12-13T07:04:32.829Z,50.01
2022-12-13T07:07:01.753Z,50.03
2022-12-13T07:09:33.170Z,50.24
2022-12-13T07:12:01.052Z,50.46
2022-12-13T07:14:28.577Z,50.20
2022-12-13T07:17:03.165Z,50.13
2022-12-13T07:19:35.381Z,50.00
2022-12-13T07:22:04.610Z,50.48
2022-12-13T07:24:32.188Z,50.64
2022-12-13T07:26:59.414Z,51.02
2022-12-13T07:29:26.834Z,50.87
2022-12-13T07:31:54.111Z,51.29
2022-12-13T07:34:30.079Z,51.06
2022-12-13T07:36:57.966Z,51.08
2022-12-13T07:39:26.489Z,51.02
2022-12-13T07:41:56.007Z,51.28
2022-12-13T07:44:24.878Z,51.42
2022-12-13T07:46:52.588Z,51.53
2022-12-13T07:49:21.102Z,51.39
2022-12-13T07:51:48.778Z,51.86
2022-12-13T07:54:16.853Z,51.75
2022-12-13T07:56:47.270Z,51.53
2022-12-13T07:59:14.480Z,51.16
2022-12-13T08:01:41.802Z,51.26
2022-12-13T08:04:09.136Z,51.33
2022-12-13T08:06:38.373Z,50.75
2022-12-13T08:09:06.231Z,51.01
2022-12-13T08:11:33.992Z,51.24
2022-12-13T08:14:01.323Z,51.53
2022-12-13T08:16:29.617Z,51.92
2022-12-13T08:19:01.950Z,52.25
2022-12-13T08:21:58.319Z,51.66
2022-12-13T08:24:28.934Z,51.73
2022-12-13T08:26:58.890Z,52.27
2022-12-13T08:29:34.040Z,51.95
2022-12-13T08:32:12.477Z,51.65
2022-12-13T08:34:40.318Z,51.95
2022-12-13T08:37:08.200Z,52.10
2022-12-13T08:39:38.553Z,52.79
2022-12-13T08:42:19.445Z,53.02
2022-12-13T08:44:49.545Z,52.93
2022-12-13T08:47:22.577Z,52.82
2022-12-13T08:49:51.241Z,52.92
2022-12-13T08:52:18.740Z,52.91
2022-12-13T08:54:45.849Z,52.62
2022-12-13T08:57:13.041Z,52.82
2022-12-13T08:59:40.961Z,53.54
2022-12-13T09:02:14.185Z,53.11
2022-12-13T09:04:42.180Z,53.36
2022-12-13T09:07:09.390Z,53.65
2022-12-13T09:09:36.989Z,54.00
2022-12-13T09:12:10.861Z,54.04
2022-12-13T09:14:53.171Z,53.92
2022-12-13T09:17:36.895Z,53.88
2022-12-13T09:20:28.694Z,53.84
2022-12-13T09:23:02.402Z,54.30
2022-12-13T09:25:37.378Z,54.39
2022-12-13T09:28:08.782Z,54.49
2022-12-13T09:30:38.879Z,54.57
2022-12-13T09:33:18.300Z,54.63
2022-12-13T09:35:53.641Z,54.32
2022-12-13T09:38:20.888Z,54.80
2022-12-13T09:40:58.630Z,54.63
2022-12-13T09:43:43.126Z,54.82
2022-12-13T09:46:34.243Z,55.19
2022-12-13T09:49:13.303Z,54.85
2022-12-13T09:51:44.984Z,54.23
2022-12-13T09:54:22.277Z,54.65
2022-12-13T09:56:51.290Z,55.31
2022-12-13T09:59:30.179Z,54.78
2022-12-13T10:02:14.512Z,55.25
2022-12-13T10:04:42.044Z,54.58
2022-12-13T10:07:23.836Z,54.64
2022-12-13T10:10:00.783Z,54.91
2022-12-13T10:12:29.534Z,54.73
2022-12-13T10:15:02.447Z,54.53
2022-12-13T10:17:41.267Z,54.50
2022-12-13T10:20:22.009Z,54.42
2022-12-13T10:23:14.968Z,54.58
2022-12-13T10:26:03.465Z,54.58
2022-12-13T10:28:33.837Z,54.95
2022-12-13T10:31:03.024Z,55.16
2022-12-13T10:33:35.344Z,55.35
2022-12-13T10:36:35.279Z,55.18
2022-12-13T10:39:03.194Z,54.73
2022-12-13T10:41:38.496Z,55.14
2022-12-13T10:44:25.064Z,54.82
2022-12-13T10:47:10.353Z,54.34
2022-12-13T10:50:00.399Z,54.43
2022-12-13T10:52:43.140Z,53.74
2022-12-13T10:55:31.650Z,53.80
2022-12-13T10:58:04.031Z,53.63
2022-12-13T11:00:46.887Z,52.95
2022-12-13T11:03:30.409Z,52.96
2022-12-13T11:06:14.569Z,53.17
2022-12-13T11:08:41.989Z,52.38
2022-12-13T11:11:10.748Z,52.61
2022-12-13T11:14:06.628Z,52.35
2022-12-13T11:16:39.965Z,53.01
2022-12-13T11:19:20.932Z,53.61
2022-12-13T11:21:52.084Z,53.08
2022-12-13T11:24:25.798Z,53.66
2022-12-13T11:27:04.696Z,53.56
2022-12-13T11:29:57.766Z,53.01
2022-12-13T11:33:14.656Z,53.19
2022-12-13T11:36:21.198Z,53.00
2022-12-13T11:39:19.038Z,52.42
2022-12-13T11:42:14.520Z,52.98
2022-12-13T11:45:11.808Z,52.85
2022-12-13T11:48:24.569Z,53.04
2022-12-13T11:50:55.252Z,52.99
2022-12-13T11:53:58.134Z,52.90
2022-12-13T11:56:43.602Z,53.63
2022-12-13T11:59:47.277Z,53.66
2022-12-13T12:02:47.437Z,52.47
2022-12-13T12:05:46.672Z,52.18
2022-12-13T12:08:44.624Z,52.78
2022-12-13T12:11:56.762Z,53.33
2022-12-13T12:15:15.601Z,52.62
2022-12-13T12:17:44.082Z,52.63
2022-12-13T12:20:24.000Z,52.05
2022-12-13T12:23:27.977Z,52.46
2022-12-13T12:26:31.243Z,53.55
2022-12-13T12:29:23.673Z,53.83
2022-12-13T12:32:31.433Z,54.57
2022-12-13T12:35:32.560Z,53.96
2022-12-13T12:38:42.318Z,54.62
2022-12-13T12:41:23.328Z,54.90
2022-12-13T12:44:39.830Z,54.73
2022-12-13T12:47:49.002Z,54.87
2022-12-13T12:50:47.273Z,54.97
2022-12-13T12:53:45.104Z,54.87
2022-12-13T12:56:44.601Z,54.24
2022-12-13T12:59:29.456Z,54.17
2022-12-13T13:02:25.902Z,53.99
2022-12-13T13:05:03.280Z,53.97
2022-12-13T13:07:40.381Z,54.23
2022-12-13T13:10:26.478Z,53.85
2022-12-13T13:13:12.000Z,53.99
2022-12-13T13:15:40.584Z,54.53
2022-12-13T13:18:46.288Z,54.38
2022-12-13T13:21:40.651Z,54.31
2022-12-13T13:24:08.019Z,53.87
2022-12-13T13:26:40.782Z,54.09
2022-12-13T13:29:30.564Z,54.36
2022-12-13T13:32:11.487Z,55.20
2022-12-13T13:34:43.605Z,55.44
2022-12-13T13:37:25.697Z,55.02
2022-12-13T13:39:53.062Z,54.29
2022-12-13T13:42:29.611Z,54.57
2022-12-13T13:45:24.537Z,54.57
2022-12-13T13:48:41.128Z,54.94
2022-12-13T13:51:32.565Z,55.54
2022-12-13T13:54:43.213Z,55.20
2022-12-13T14:01:14.056Z,55.43
2022-12-13T14:04:09.802Z,55.52
2022-12-13T14:07:26.467Z,56.51
2022-12-13T14:10:00.424Z,55.73
2022-12-13T14:13:25.039Z,56.03
2022-12-13T14:16:29.241Z,55.40
2022-12-13T14:19:47.356Z,55.84
2022-12-13T14:22:43.120Z,55.88
2022-12-13T14:26:09.952Z,56.09
2022-12-13T14:28:59.346Z,56.19
2022-12-13T14:31:40.589Z,56.21
2022-12-13T14:34:36.428Z,56.29
2022-12-13T14:37:21.321Z,56.49
2022-12-13T14:39:48.676Z,56.26
2022-12-13T14:42:34.284Z,56.22
2022-12-13T14:45:23.971Z,56.96
2022-12-13T14:47:54.116Z,56.86
2022-12-13T14:50:25.088Z,57.41
2022-12-13T14:52:54.007Z,57.30
2022-12-13T14:55:32.048Z,57.22
2022-12-13T14:58:02.195Z,57.58
2022-12-13T15:00:40.247Z,57.94
2022-12-13T15:03:07.972Z,57.62
2022-12-13T15:05:50.470Z,57.38
2022-12-13T15:08:20.338Z,57.13
2022-12-13T15:10:56.153Z,57.06
2022-12-13T15:13:44.908Z,57.31
2022-12-13T15:16:29.297Z,57.08
2022-12-13T15:19:14.014Z,57.58
2022-12-13T15:22:02.313Z,57.28
2022-12-13T15:24:39.025Z,57.63
2022-12-13T15:27:09.244Z,57.84
2022-12-13T15:29:37.365Z,57.89
2022-12-13T15:32:11.560Z,57.89
2022-12-13T15:34:38.767Z,58.10
2022-12-13T15:37:29.606Z,57.68
2022-12-13T15:40:08.138Z,57.74
2022-12-13T15:42:43.642Z,57.38
2022-12-13T15:45:25.284Z,57.65
2022-12-13T15:47:54.909Z,57.55
2022-12-13T15:50:41.017Z,57.99
2022-12-13T15:53:28.937Z,57.50
2022-12-13T15:55:56.725Z,57.76
2022-12-13T15:58:37.505Z,57.71
2022-12-13T16:01:05.313Z,57.92
2022-12-13T16:03:44.295Z,57.92
2022-12-13T16:06:19.612Z,57.76
2022-12-13T16:08:56.737Z,57.52
2022-12-13T16:11:53.515Z,57.43
2022-12-13T16:14:36.879Z,57.55
2022-12-13T16:17:28.241Z,57.23
2022-12-13T16:19:57.629Z,56.96
2022-12-13T16:22:25.148Z,56.67
2022-12-13T16:24:53.111Z,56.67
2022-12-13T16:27:20.418Z,56.75
2022-12-13T16:29:47.670Z,56.81
2022-12-13T16:32:15.393Z,57.07
2022-12-13T16:34:42.757Z,56.42
2022-12-13T16:37:25.509Z,56.52
2022-12-13T16:39:55.695Z,56.81
2022-12-13T16:42:26.563Z,56.12
2022-12-13T16:45:17.872Z,56.13
2022-12-13T16:47:48.454Z,56.20
2022-12-13T16:50:20.668Z,56.22
2022-12-13T16:52:49.240Z,55.96
2022-12-13T16:55:16.730Z,55.96
2022-12-13T16:57:44.041Z,55.98
2022-12-13T17:00:13.642Z,56.00
2022-12-13T17:02:40.894Z,56.15
2022-12-13T17:05:08.983Z,55.23
2022-12-13T17:07:36.180Z,55.82
2022-12-13T17:10:04.541Z,55.84
2022-12-13T17:12:31.871Z,55.91
2022-12-13T17:14:59.083Z,55.90
2022-12-13T17:17:26.274Z,55.68
2022-12-13T17:19:53.687Z,55.45
2022-12-13T17:22:20.913Z,55.04
2022-12-13T17:24:48.192Z,55.36
2022-12-13T17:27:15.407Z,55.29
2022-12-13T17:29:42.551Z,55.43
2022-12-13T17:32:09.783Z,55.57
2022-12-13T17:34:37.182Z,55.39
2022-12-13T17:37:10.125Z,55.39
2022-12-13T17:39:38.725Z,55.70
2022-12-13T17:42:06.648Z,56.01
2022-12-13T17:44:33.951Z,56.19
2022-12-13T17:47:08.988Z,55.49
2022-12-13T17:49:36.294Z,55.50
2022-12-13T17:52:03.464Z,54.71
2022-12-13T17:54:30.742Z,55.14
2022-12-13T17:56:58.211Z,55.22
2022-12-13T17:59:25.636Z,55.34
2022-12-13T18:01:53.588Z,55.30
2022-12-13T18:04:21.529Z,55.41
2022-12-13T18:06:50.941Z,55.33
2022-12-13T18:09:18.482Z,55.42
2022-12-13T18:11:45.797Z,55.58
2022-12-13T18:14:13.376Z,55.58
2022-12-13T18:16:41.007Z,55.72
2022-12-13T18:19:13.612Z,55.43
2022-12-13T18:21:46.256Z,55.84
2022-12-13T18:24:18.416Z,55.58
2022-12-13T18:26:47.767Z,55.71
2022-12-13T18:29:16.034Z,55.95
2022-12-13T18:31:45.182Z,55.92
2022-12-13T18:34:14.071Z,55.82
2022-12-13T18:36:41.822Z,56.00
2022-12-13T18:39:09.346Z,55.87
2022-12-13T18:41:41.342Z,55.62
2022-12-13T18:44:11.308Z,56.39
2022-12-13T18:46:43.468Z,55.59
2022-12-13T18:49:13.562Z,56.00
2022-12-13T18:51:41.043Z,56.11
2022-12-13T18:54:12.797Z,56.02
2022-12-13T18:56:40.101Z,55.86
2022-12-13T18:59:07.758Z,55.78
2022-12-13T19:01:37.139Z,55.50
2022-12-13T19:04:06.409Z,55.92
2022-12-13T19:06:34.045Z,55.98
2022-12-13T19:09:09.083Z,55.91
2022-12-13T19:11:37.910Z,55.86
2022-12-13T19:14:05.686Z,55.90
2022-12-13T19:16:33.994Z,55.95
2022-12-13T19:19:02.209Z,55.74
2022-12-13T19:21:29.432Z,55.92
2022-12-13T19:23:58.443Z,55.46
2022-12-13T19:26:29.788Z,55.41
2022-12-13T19:28:59.043Z,54.88
2022-12-13T19:31:32.182Z,55.56
2022-12-13T19:34:01.943Z,55.08
2022-12-13T19:36:33.458Z,55.89
2022-12-13T19:39:05.835Z,55.71
2022-12-13T19:41:33.195Z,55.79
2022-12-13T19:44:03.297Z,55.68
2022-12-13T19:46:31.982Z,56.02
2022-12-13T19:48:59.696Z,55.80
2022-12-13T19:51:26.937Z,55.78
2022-12-13T19:53:54.234Z,55.97
2022-12-13T19:56:22.416Z,55.49
2022-12-13T19:58:50.389Z,56.35
2022-12-13T20:01:19.097Z,56.25
2022-12-13T20:03:46.962Z,56.39
2022-12-13T20:06:22.682Z,56.89
2022-12-13T20:08:50.693Z,56.57
2022-12-13T20:11:22.904Z,56.24
2022-12-13T20:13:54.942Z,57.37
2022-12-13T20:16:26.013Z,56.92
2022-12-13T20:18:59.715Z,56.52
2022-12-13T20:21:28.902Z,56.54
2022-12-13T20:23:57.161Z,56.27
2022-12-13T20:26:27.853Z,56.31
2022-12-13T20:28:56.541Z,56.44
2022-12-13T20:31:32.167Z,56.36
2022-12-13T20:34:04.707Z,56.42
2022-12-13T20:36:32.751Z,56.50
2022-12-13T20:39:03.896Z,56.81
2022-12-13T20:41:33.691Z,56.57
2022-12-13T20:44:03.092Z,56.76
2022-12-13T20:46:31.400Z,56.88
2022-12-13T20:49:02.400Z,56.40
2022-12-13T20:51:32.088Z,56.33
2022-12-13T20:53:59.439Z,56.24
2022-12-13T20:56:31.008Z,56.43
2022-12-13T20:58:58.280Z,56.42
2022-12-13T21:01:33.198Z,56.63
2022-12-13T21:04:03.859Z,56.62
2022-12-13T21:06:36.893Z,56.06
2022-12-13T21:09:06.004Z,56.50
2022-12-13T21:11:43.155Z,57.18
2022-12-13T21:14:23.619Z,56.84
2022-12-13T21:16:53.400Z,57.23
2022-12-13T21:19:25.241Z,57.30
2022-12-13T21:21:54.442Z,57.73
2022-12-13T21:24:24.246Z,57.78
2022-12-13T21:26:52.370Z,57.09
2022-12-13T21:29:19.964Z,57.30
2022-12-13T21:31:49.491Z,57.73
2022-12-13T21:34:18.313Z,57.42
2022-12-13T21:36:48.618Z,57.80
2022-12-13T21:39:26.603Z,57.20
2022-12-13T21:41:54.076Z,57.69
2022-12-13T21:44:22.131Z,57.65
2022-12-13T21:49:37.471Z,57.96
2022-12-13T21:52:05.058Z,57.81
2022-12-13T21:54:32.202Z,57.85
2022-12-13T21:56:59.422Z,57.76
2022-12-13T21:59:28.364Z,57.91
2022-12-13T22:02:06.534Z,58.17
2022-12-13T22:04:36.920Z,57.70
2022-12-13T22:07:06.636Z,57.88
2022-12-13T22:09:35.540Z,57.62
2022-12-13T22:12:11.042Z,58.12
2022-12-13T22:14:38.399Z,57.42
2022-12-13T22:17:05.673Z,57.64
2022-12-13T22:19:33.038Z,57.43
2022-12-13T22:22:00.374Z,57.29
2022-12-13T22:24:27.652Z,56.79
2022-12-13T22:26:54.904Z,57.46
2022-12-13T22:29:22.115Z,57.16
2022-12-13T22:31:49.668Z,57.07
2022-12-13T22:34:17.385Z,56.95
2022-12-13T22:36:44.715Z,57.12
2022-12-13T22:39:22.139Z,56.67
2022-12-13T22:41:51.223Z,57.13
2022-12-13T22:44:20.147Z,57.22
2022-12-13T22:46:47.949Z,57.17
2022-12-13T22:49:15.369Z,57.15
2022-12-13T22:51:42.943Z,57.35
2022-12-13T22:54:10.516Z,57.02
2022-12-13T22:56:38.022Z,57.52
2022-12-13T22:59:06.028Z,57.52
2022-12-13T23:01:37.879Z,57.62
2022-12-13T23:04:06.743Z,57.55
2022-12-13T23:06:37.854Z,57.64
2022-12-13T23:09:10.446Z,57.55
2022-12-13T23:11:38.071Z,57.15
2022-12-13T23:14:08.648Z,57.51
2022-12-13T23:16:36.968Z,57.27
2022-12-13T23:19:39.857Z,57.66
2022-12-13T23:21:55.821Z,57.64
2022-12-13T23:24:23.060Z,58.08
2022-12-13T23:26:50.489Z,57.91
2022-12-13T23:29:17.919Z,57.40
2022-12-13T23:31:48.865Z,58.15
2022-12-13T23:34:16.997Z,57.69
2022-12-13T23:36:44.464Z,58.05
2022-12-13T23:39:12.198Z,57.48
2022-12-13T23:41:39.413Z,57.62
2022-12-13T23:44:07.009Z,57.80
2022-12-13T23:46:36.499Z,57.82
2022-12-13T23:49:05.648Z,58.23
2022-12-13T23:51:34.775Z,57.59
2022-12-13T23:54:02.271Z,58.26
2022-12-13T23:56:29.876Z,58.09
2022-12-13T23:58:57.117Z,57.92
